Terminal Aerodrome Forecast
Issued by NWS

Home | Current Version | Previous Version | Text Only | Print | Product List | Glossary On
Versions: 1 2 3 4 5 6 7 8 9 10 11 12 13 14 15 16 17 18 19 20 21
000
FTUS46 KHNX 310520
TAFBFL
TAF
KBFL 310520Z 3106/0106 07003KT 4SM HZ SKC
     FM311500 00000KT 1/2SM FG OVC002
     FM311900 VRB03KT 2SM BR BKN004
     FM312100 VRB04KT 4SM HZ SCT030=

USA.gov is the U.S. government's official web portal to all federal, state and local government web resources and services.